Time;durP1;ratioP1;P1;durP2;ratioP2;P2;SDS_P1;SDS_P2;PMS_P1;PMS_P2;Temp;Humidity;BMP_temperature;BMP_pressure;BME280_temperature;BME280_humidity;BME280_pressure;Samples;Min_cycle;Max_cycle;Signal;HPM_P1;HPM_P2
2023/01/01 00:00:47;;;;;;;24.20;14.23;;;;;;;19.06;44.80;100767.91;4934948;28;124216;-70
2023/01/01 00:03:15;;;;;;;19.60;13.10;;;;;;;19.06;44.66;100774.16;4945444;28;123916;-70
2023/01/01 00:05:42;;;;;;;23.35;11.63;;;;;;;19.09;44.77;100770.38;4942116;28;109030;-70
2023/01/01 00:08:09;;;;;;;20.40;11.48;;;;;;;19.11;44.53;100791.72;4945258;28;109621;-70
2023/01/01 00:10:36;;;;;;;21.38;11.02;;;;;;;19.11;44.40;100786.34;4941704;28;122390;-69
2023/01/01 00:13:03;;;;;;;22.15;11.10;;;;;;;19.12;44.58;100794.28;4939014;28;123711;-69
2023/01/01 00:15:30;;;;;;;24.10;12.05;;;;;;;19.12;44.46;100788.91;4945083;28;110079;-69
2023/01/01 00:17:57;;;;;;;26.98;11.80;;;;;;;19.14;44.42;100797.69;4944837;28;110009;-69
2023/01/01 00:20:25;;;;;;;18.73;9.65;;;;;;;19.15;44.34;100783.28;4949154;28;124894;-69
2023/01/01 00:23:00;;;;;;;20.13;9.93;;;;;;;19.16;44.29;100779.63;4949762;28;124391;-69
2023/01/01 00:25:27;;;;;;;21.73;10.10;;;;;;;19.16;44.41;100795.72;4956535;28;109194;-70
2023/01/01 00:27:54;;;;;;;22.38;9.65;;;;;;;19.18;44.29;100799.13;4957854;28;110231;-69
2023/01/01 00:30:23;;;;;;;14.45;8.65;;;;;;;19.18;44.21;100788.41;4962952;28;123370;-70
2023/01/01 00:32:50;;;;;;;19.50;9.52;;;;;;;19.20;44.28;100797.19;4952068;28;124524;-67
2023/01/01 00:35:26;;;;;;;15.45;7.50;;;;;;;19.21;43.87;100788.16;4963009;28;109156;-67
2023/01/01 00:37:54;;;;;;;13.75;7.50;;;;;;;19.22;44.10;100784.47;4955973;28;110337;-67
2023/01/01 00:40:21;;;;;;;12.52;6.13;;;;;;;19.22;43.91;100800.59;4965101;28;125000;-67
2023/01/01 00:42:48;;;;;;;12.90;6.70;;;;;;;19.22;43.99;100789.84;4958412;28;122793;-67
2023/01/01 00:45:15;;;;;;;11.07;5.68;;;;;;;19.24;43.83;100789.72;4959382;28;109276;-67
2023/01/01 00:47:52;;;;;;;14.20;4.28;;;;;;;19.26;43.63;100775.19;4950510;28;108183;-67
2023/01/01 00:50:20;;;;;;;12.00;4.35;;;;;;;19.30;43.58;100791.06;4954931;28;124050;-67
2023/01/01 00:52:48;;;;;;;12.43;5.18;;;;;;;19.32;43.53;100789.09;4962707;28;124543;-67
2023/01/01 00:55:15;;;;;;;10.73;5.22;;;;;;;19.32;43.54;100783.72;4957887;28;109598;-67
2023/01/01 00:57:42;;;;;;;13.32;4.43;;;;;;;19.32;43.53;100778.34;4963472;28;109141;-66
2023/01/01 01:00:10;;;;;;;9.88;4.00;;;;;;;19.33;43.51;100780.06;4956767;28;124766;-67
2023/01/01 01:02:37;;;;;;;10.27;3.42;;;;;;;19.32;43.49;100789.09;4966260;28;123813;-67
2023/01/01 01:05:05;;;;;;;9.65;3.38;;;;;;;19.31;43.22;100771.25;4964384;28;108620;-67
2023/01/01 01:07:35;;;;;;;8.60;2.97;;;;;;;19.31;43.08;100782.00;4957197;28;110315;-68
2023/01/01 01:10:03;;;;;;;9.68;3.72;;;;;;;19.29;43.30;100795.56;4960401;28;124035;-67
2023/01/01 01:12:33;;;;;;;11.98;3.55;;;;;;;19.28;43.00;100782.28;4954623;28;124813;-67
2023/01/01 01:15:00;;;;;;;7.38;2.72;;;;;;;19.26;43.04;100791.28;4957046;28;109090;-67
2023/01/01 01:17:28;;;;;;;10.73;3.20;;;;;;;19.26;43.15;100796.66;4955445;28;109050;-66
2023/01/01 01:19:55;;;;;;;9.10;3.10;;;;;;;19.27;42.90;100797.53;4940013;28;122904;-67
2023/01/01 01:22:23;;;;;;;10.73;2.83;;;;;;;19.28;42.99;100803.75;4954119;28;124848;-67
2023/01/01 01:24:55;;;;;;;7.97;2.55;;;;;;;19.28;42.80;100801.06;4955370;28;109638;-67
2023/01/01 01:27:23;;;;;;;8.13;2.40;;;;;;;19.28;42.75;100793.00;4957305;28;109052;-67
2023/01/01 01:29:50;;;;;;;8.88;2.65;;;;;;;19.27;42.79;100797.53;4954276;28;123934;-66
2023/01/01 01:32:18;;;;;;;9.93;2.47;;;;;;;19.28;42.96;100798.38;4954881;28;124530;-66
2023/01/01 01:34:45;;;;;;;5.68;2.33;;;;;;;19.29;42.77;100805.44;4965262;28;108536;-67
2023/01/01 01:37:13;;;;;;;9.45;2.28;;;;;;;19.30;42.83;100812.53;4951200;28;109335;-67
2023/01/01 01:39:40;;;;;;;5.75;2.20;;;;;;;19.30;42.88;100802.63;4957240;28;124046;-67
2023/01/01 01:42:11;;;;;;;10.48;3.10;;;;;;;19.29;42.68;100816.19;4953261;28;124242;-67
2023/01/01 01:44:44;;;;;;;9.18;2.85;;;;;;;19.28;42.70;100819.88;4952518;28;109186;-67
2023/01/01 01:47:19;;;;;;;6.63;2.55;;;;;;;19.25;42.41;100824.53;4970362;28;108426;-67
2023/01/01 01:49:47;;;;;;;5.85;2.38;;;;;;;19.22;42.73;100816.69;4957143;28;123887;-67
2023/01/01 01:52:14;;;;;;;9.23;2.83;;;;;;;19.20;42.61;100818.66;4960613;28;123936;-66
2023/01/01 01:54:41;;;;;;;7.35;2.10;;;;;;;19.17;42.36;100829.63;4955603;28;108291;-67
2023/01/01 01:57:12;;;;;;;5.90;2.22;;;;;;;19.16;42.27;100817.22;4954302;28;109805;-67
2023/01/01 01:59:43;;;;;;;10.57;3.55;;;;;;;19.16;42.26;100811.84;4952371;28;124956;-67
2023/01/01 02:02:36;;;;;;;8.45;3.88;;;;;;;19.15;42.53;100826.22;4958480;28;123867;-66
2023/01/01 02:05:04;;;;;;;10.68;5.10;;;;;;;19.15;42.51;100853.06;4957481;28;109738;-67
2023/01/01 02:07:33;;;;;;;6.70;2.30;;;;;;;19.12;42.48;100836.38;4955602;28;109151;-67
2023/01/01 02:10:01;;;;;;;8.07;2.67;;;;;;;19.11;42.22;100845.41;4956789;28;124587;-67
2023/01/01 02:12:28;;;;;;;7.57;2.10;;;;;;;19.08;42.36;100845.66;4938851;28;122926;-67
2023/01/01 02:14:55;;;;;;;6.15;2.97;;;;;;;19.07;42.40;100844.81;4959585;28;109908;-67
2023/01/01 02:17:46;;;;;;;7.05;3.50;;;;;;;19.04;42.27;100855.78;4954007;28;108727;-66
2023/01/01 02:20:29;;;;;;;9.07;4.30;;;;;;;19.02;42.39;100841.63;4959486;28;123753;-67
2023/01/01 02:23:21;;;;;;;7.78;3.28;;;;;;;18.99;42.47;100866.06;4947264;28;124631;-67
2023/01/01 02:25:55;;;;;;;10.35;3.15;;;;;;;18.98;42.40;100850.91;4954301;28;109269;-67
2023/01/01 02:28:22;;;;;;;6.75;3.13;;;;;;;18.96;42.57;100856.41;4952470;28;109241;-67
2023/01/01 02:30:52;;;;;;;9.77;3.40;;;;;;;18.94;42.54;100862.88;4965016;28;124111;-67
2023/01/01 02:33:24;;;;;;;7.80;3.40;;;;;;;18.91;42.48;100863.13;4963353;28;124448;-67
2023/01/01 02:35:57;;;;;;;6.75;2.50;;;;;;;18.88;42.50;100849.97;4950984;28;109793;-67
2023/01/01 02:38:40;;;;;;;9.32;2.50;;;;;;;18.84;42.57;100844.81;4954588;28;108761;-66
2023/01/01 02:41:12;;;;;;;8.98;2.25;;;;;;;18.82;42.64;100852.16;4951950;28;123848;-67
2023/01/01 02:43:41;;;;;;;10.30;2.30;;;;;;;18.79;42.59;100856.88;4954821;28;124096;-67
2023/01/01 02:46:11;;;;;;;6.00;2.42;;;;;;;18.75;42.62;100850.88;4953566;28;110173;-67
2023/01/01 02:48:42;;;;;;;6.97;2.53;;;;;;;18.74;42.61;100849.19;4963495;28;110697;-67
2023/01/01 02:51:29;;;;;;;5.20;2.28;;;;;;;18.70;42.77;100847.72;4957627;28;124606;-67
2023/01/01 02:54:18;;;;;;;8.60;2.03;;;;;;;18.69;42.75;100846.03;4955779;28;124163;-67
2023/01/01 02:57:13;;;;;;;6.60;2.03;;;;;;;18.66;42.75;100848.94;4957403;28;109697;-67
2023/01/01 03:03:20;;;;;;;6.70;1.70;;;;;;;18.59;42.95;100839.66;4966238;28;123243;-67
2023/01/01 03:06:25;;;;;;;10.25;2.00;;;;;;;18.57;42.96;100857.69;4944446;28;122733;-66
2023/01/01 03:09:07;;;;;;;6.00;1.90;;;;;;;18.53;42.99;100864.28;4952382;28;108961;-66
2023/01/01 03:11:46;;;;;;;6.53;2.03;;;;;;;18.53;42.85;100864.28;4952009;28;109580;-66
2023/01/01 03:14:26;;;;;;;6.47;2.17;;;;;;;18.52;43.01;100862.59;4947733;28;124188;-67
2023/01/01 03:17:17;;;;;;;5.90;2.30;;;;;;;18.51;42.99;100869.75;4953931;28;124001;-67
2023/01/01 03:19:47;;;;;;;10.15;2.47;;;;;;;18.53;42.78;100877.69;4953260;28;108774;-67
2023/01/01 03:22:16;;;;;;;5.45;2.33;;;;;;;18.52;43.04;100876.84;4942652;28;107971;-67
2023/01/01 03:24:48;;;;;;;7.88;2.10;;;;;;;18.52;42.88;100865.28;4952255;28;124474;-67
2023/01/01 03:27:27;;;;;;;6.60;1.80;;;;;;;18.53;42.91;100875.00;4958218;28;124146;-67
2023/01/01 03:29:58;;;;;;;5.45;1.88;;;;;;;18.53;42.93;100883.91;4955014;28;109771;-67
2023/01/01 03:35:24;;;;;;;5.15;1.60;;;;;;;18.51;43.10;100890.38;4956808;28;124198;-67
2023/01/01 03:37:55;;;;;;;8.88;1.95;;;;;;;18.51;42.81;100879.66;4957981;28;122618;-67
2023/01/01 03:40:24;;;;;;;6.45;2.08;;;;;;;18.51;43.02;100879.66;4949487;28;110589;-67
2023/01/01 03:43:18;;;;;;;6.93;2.38;;;;;;;18.51;42.93;100874.28;4956930;28;109871;-67
2023/01/01 03:45:49;;;;;;;10.57;2.38;;;;;;;18.51;43.09;100864.41;4953306;28;124176;-67
2023/01/01 03:48:17;;;;;;;9.57;2.50;;;;;;;18.53;43.04;100872.34;4957989;28;124789;-67
2023/01/01 03:51:16;;;;;;;8.48;2.42;;;;;;;18.53;43.09;100880.38;4956648;28;109110;-68
2023/01/01 03:53:43;;;;;;;7.85;2.03;;;;;;;18.54;43.19;100879.41;4960248;28;109077;-67
2023/01/01 03:56:44;;;;;;;3.80;1.90;;;;;;;18.55;43.37;100897.22;4949000;28;123242;-68
2023/01/01 03:59:20;;;;;;;6.38;2.08;;;;;;;18.55;43.24;100898.06;4953218;28;124219;-67
2023/01/01 04:01:51;;;;;;;5.38;2.13;;;;;;;18.55;43.33;100902.56;4958494;28;110089;-68
2023/01/01 04:04:19;;;;;;;6.18;1.92;;;;;;;18.56;43.28;100917.72;4956035;28;109225;-67
2023/01/01 04:06:46;;;;;;;7.40;2.45;;;;;;;18.55;43.20;100910.63;4955436;28;127157;-67
2023/01/01 04:09:20;;;;;;;6.07;2.70;;;;;;;18.55;43.27;100913.31;4959967;28;123969;-67
2023/01/01 04:12:00;;;;;;;8.47;3.33;;;;;;;18.55;43.47;100913.31;4950284;28;110177;-67
2023/01/01 04:14:35;;;;;;;9.80;2.58;;;;;;;18.53;43.24;100904.53;4954991;28;108771;-67
2023/01/01 04:17:03;;;;;;;7.25;2.30;;;;;;;18.51;43.38;100911.84;4950939;28;124528;-67
2023/01/01 04:19:31;;;;;;;6.95;2.20;;;;;;;18.49;43.32;100915.47;4970777;28;123996;-67
2023/01/01 04:21:59;;;;;;;6.93;1.85;;;;;;;18.48;43.34;100919.16;4953634;28;109027;-68
2023/01/01 04:24:26;;;;;;;5.10;1.63;;;;;;;18.48;43.55;100919.16;4959426;28;109433;-67
2023/01/01 04:26:53;;;;;;;3.97;1.67;;;;;;;18.48;43.48;100937.06;4955280;28;124141;-67
2023/01/01 04:29:21;;;;;;;6.25;1.75;;;;;;;18.46;43.44;100926.47;4955803;28;124650;-68
2023/01/01 04:31:49;;;;;;;4.38;1.55;;;;;;;18.46;43.60;100921.09;4967165;28;110442;-68
2023/01/01 04:34:16;;;;;;;4.85;1.55;;;;;;;18.47;43.67;100917.44;4953592;28;109738;-68
2023/01/01 04:36:44;;;;;;;6.82;2.33;;;;;;;18.47;43.88;100914.75;4952467;28;124219;-67
2023/01/01 04:39:11;;;;;;;6.40;2.40;;;;;;;18.45;43.68;100919.38;4941444;28;122752;-67
2023/01/01 04:41:38;;;;;;;7.88;2.40;;;;;;;18.45;43.81;100914.00;4960349;28;108960;-67
2023/01/01 04:44:05;;;;;;;8.45;2.92;;;;;;;18.45;43.54;100913.16;4958857;28;108639;-67
2023/01/01 04:46:32;;;;;;;6.20;2.78;;;;;;;18.44;43.99;100906.06;4955201;28;123981;-67
2023/01/01 04:48:59;;;;;;;5.80;2.53;;;;;;;18.43;43.83;100926.69;4953559;28;124467;-67
2023/01/01 04:51:26;;;;;;;6.10;2.50;;;;;;;18.42;43.84;100925.00;4953814;28;109005;-67
2023/01/01 04:53:53;;;;;;;5.03;1.92;;;;;;;18.40;44.04;100943.03;4954811;28;108911;-67
2023/01/01 04:56:21;;;;;;;5.70;1.60;;;;;;;18.39;44.02;100945.81;4949194;28;123023;-67
2023/01/01 04:58:49;;;;;;;4.35;1.60;;;;;;;18.37;44.00;100927.16;4953073;28;124005;-67
2023/01/01 05:01:21;;;;;;;5.28;1.63;;;;;;;18.34;44.21;100946.16;4960072;28;109878;-67
2023/01/01 05:03:49;;;;;;;7.18;1.95;;;;;;;18.34;44.30;100932.75;4949530;28;109745;-68
2023/01/01 05:06:17;;;;;;;5.60;1.90;;;;;;;18.32;44.48;100945.41;4954114;28;124227;-67
2023/01/01 05:08:46;;;;;;;5.75;2.50;;;;;;;18.32;44.45;100945.41;4952664;28;124493;-67
2023/01/01 05:11:19;;;;;;;8.18;1.98;;;;;;;18.32;44.51;100948.09;4957604;28;109235;-67
2023/01/01 05:13:48;;;;;;;4.35;1.85;;;;;;;18.29;44.51;100940.31;4960127;28;109133;-67
2023/01/01 05:16:18;;;;;;;6.90;1.63;;;;;;;18.27;44.47;100947.59;4961584;28;123859;-67
2023/01/01 05:18:45;;;;;;;5.75;1.75;;;;;;;18.27;44.75;100977.09;4952822;28;123613;-67
2023/01/01 05:21:21;;;;;;;5.57;1.50;;;;;;;18.25;44.68;100977.22;4961383;28;110361;-68
2023/01/01 05:23:53;;;;;;;6.00;1.60;;;;;;;18.24;44.75;100971.97;4957512;28;108865;-67
2023/01/01 05:26:23;;;;;;;4.70;1.70;;;;;;;18.21;44.97;100975.72;4942789;28;123743;-67
2023/01/01 05:28:50;;;;;;;6.25;1.45;;;;;;;18.21;44.95;100980.22;4953660;28;124754;-67
2023/01/01 05:31:20;;;;;;;5.38;1.58;;;;;;;18.20;44.96;100978.53;4957567;28;109314;-69
2023/01/01 05:33:47;;;;;;;8.45;1.80;;;;;;;18.19;45.06;100998.25;4957662;28;109325;-67
2023/01/01 05:36:18;;;;;;;4.47;1.55;;;;;;;18.19;45.26;101003.63;4956004;28;125014;-67
2023/01/01 05:38:45;;;;;;;5.22;1.60;;;;;;;18.17;45.17;101016.28;4959087;28;124342;-67
2023/01/01 05:41:14;;;;;;;4.18;1.60;;;;;;;18.16;45.23;101030.66;4952189;28;109620;-67
2023/01/01 05:43:42;;;;;;;4.65;1.60;;;;;;;18.16;45.40;101030.66;4954900;28;109244;-67
2023/01/01 05:46:13;;;;;;;8.05;1.50;;;;;;;18.14;45.32;101043.31;4954744;28;123810;-67
2023/01/01 05:48:40;;;;;;;7.47;1.83;;;;;;;18.14;45.51;101038.81;4953693;28;123638;-67
2023/01/01 05:51:17;;;;;;;4.55;1.50;;;;;;;18.12;45.59;101026.50;4947528;28;108353;-68
2023/01/01 05:53:44;;;;;;;5.70;1.75;;;;;;;18.09;45.49;101020.38;4952757;28;108886;-67
2023/01/01 05:56:13;;;;;;;4.80;1.92;;;;;;;18.09;45.62;101020.38;4958531;28;124014;-68
2023/01/01 05:58:41;;;;;;;3.03;1.42;;;;;;;18.09;45.63;101036.47;4964878;28;124387;-67
2023/01/01 06:01:12;;;;;;;5.57;1.60;;;;;;;18.08;45.74;101045.50;4952332;28;114600;-67
2023/01/01 06:03:40;;;;;;;6.68;1.77;;;;;;;18.07;45.69;101049.13;4959963;28;114125;-67
2023/01/01 06:06:13;;;;;;;6.15;1.77;;;;;;;18.05;45.76;101072.50;4953921;28;124059;-68
2023/01/01 06:08:40;;;;;;;5.78;2.00;;;;;;;18.04;45.91;101065.44;4939072;28;124749;-67
2023/01/01 06:11:10;;;;;;;8.30;1.88;;;;;;;18.03;45.93;101079.81;4951117;28;116402;-67
2023/01/01 06:13:37;;;;;;;5.95;1.60;;;;;;;18.03;46.11;101087.00;4953252;28;113595;-67
2023/01/01 06:16:05;;;;;;;7.90;1.77;;;;;;;18.02;46.24;101078.09;4953696;28;123923;-67
2023/01/01 06:18:34;;;;;;;8.75;1.90;;;;;;;18.00;46.06;101093.44;4954118;28;124000;-67
2023/01/01 06:21:05;;;;;;;5.03;1.70;;;;;;;17.99;46.03;101094.41;4959896;28;114119;-67
2023/01/01 06:23:32;;;;;;;4.10;1.70;;;;;;;17.97;46.27;101091.00;4954049;28;114961;-67
2023/01/01 06:26:22;;;;;;;6.13;1.90;;;;;;;17.95;46.49;101103.66;4951424;28;124114;-67
2023/01/01 06:28:50;;;;;;;3.80;1.60;;;;;;;17.93;46.45;101092.16;4950845;28;124559;-67
2023/01/01 06:31:20;;;;;;;5.13;1.60;;;;;;;17.93;46.46;101094.84;4947838;28;112613;-67
2023/01/01 06:33:49;;;;;;;6.05;1.98;;;;;;;17.92;46.30;101095.81;4949258;28;114188;-67
2023/01/01 06:36:19;;;;;;;5.10;1.63;;;;;;;17.90;46.35;101095.06;4924399;28;123723;-67
2023/01/01 06:38:50;;;;;;;3.20;1.65;;;;;;;17.89;46.47;101098.69;4950615;28;124781;-67
2023/01/01 06:41:22;;;;;;;7.25;1.60;;;;;;;17.89;46.69;101104.06;4951717;28;115430;-67
2023/01/01 06:43:49;;;;;;;9.50;2.13;;;;;;;17.88;46.70;101134.53;4953913;28;113904;-68
2023/01/01 06:46:16;;;;;;;8.07;1.90;;;;;;;17.86;46.75;101125.75;4957391;28;125189;-67
2023/01/01 06:48:45;;;;;;;5.95;1.83;;;;;;;17.85;46.92;101156.16;4954848;28;123272;-67
2023/01/01 06:51:18;;;;;;;7.45;2.20;;;;;;;17.83;47.37;101168.78;4956037;28;114295;-68
2023/01/01 06:53:46;;;;;;;5.95;2.00;;;;;;;17.80;47.47;101185.06;4956352;28;114120;-67
2023/01/01 06:56:15;;;;;;;8.55;2.33;;;;;;;17.73;47.91;101179.28;4949949;28;124064;-68
2023/01/01 06:58:43;;;;;;;4.90;1.85;;;;;;;17.61;48.28;101217.63;4951305;28;124915;-67
2023/01/01 07:01:19;;;;;;;4.65;1.75;;;;;;;17.43;48.71;101215.25;4960154;28;114783;-67
2023/01/01 07:03:51;;;;;;;4.13;1.55;;;;;;;17.27;49.54;101215.44;4954167;28;114785;-67
2023/01/01 07:06:19;;;;;;;6.65;1.75;;;;;;;17.15;49.50;101221.63;4947964;28;123853;-67
2023/01/01 07:08:46;;;;;;;6.63;2.38;;;;;;;17.01;49.75;101213.63;4952708;28;123903;-67
2023/01/01 07:11:13;;;;;;;6.30;1.67;;;;;;;16.87;50.25;101206.53;4951123;28;114658;-67
2023/01/01 07:13:40;;;;;;;6.47;1.83;;;;;;;16.77;50.48;101194.69;4936920;28;113167;-67
2023/01/01 07:16:07;;;;;;;7.13;2.00;;;;;;;16.68;50.70;101180.09;4953341;28;124495;-67
2023/01/01 07:18:40;;;;;;;5.00;1.65;;;;;;;16.61;50.78;101189.47;4946591;28;123823;-67
2023/01/01 07:21:27;;;;;;;6.85;1.88;;;;;;;16.53;50.90;101209.53;4950450;28;113452;-67
2023/01/01 07:24:00;;;;;;;6.60;2.22;;;;;;;16.47;51.18;101220.63;4962928;28;112908;-67
2023/01/01 07:26:29;;;;;;;6.88;2.25;;;;;;;16.44;51.60;101244.03;4958722;28;124396;-67
2023/01/01 07:28:57;;;;;;;4.75;2.38;;;;;;;16.39;51.72;101248.81;4955096;28;124601;-67
2023/01/01 07:31:36;;;;;;;7.65;2.70;;;;;;;16.34;51.93;101241.09;4948067;28;114588;-67
2023/01/01 07:34:05;;;;;;;5.97;2.72;;;;;;;16.29;52.27;101251.19;4947799;28;113740;-67
2023/01/01 07:36:32;;;;;;;8.70;2.75;;;;;;;16.26;52.28;101246.06;4954102;28;123060;-67
2023/01/01 07:39:00;;;;;;;7.60;2.55;;;;;;;16.23;52.71;101267.63;4947007;28;123764;-68
2023/01/01 07:41:27;;;;;;;4.68;2.50;;;;;;;16.19;52.80;101268.78;4950808;28;113680;-68
2023/01/01 07:43:54;;;;;;;5.03;2.40;;;;;;;16.13;53.04;101272.69;4952537;28;113962;-67
2023/01/01 07:46:21;;;;;;;7.63;2.97;;;;;;;16.09;53.25;101269.34;4957035;28;124696;-67
2023/01/01 07:48:48;;;;;;;8.32;2.78;;;;;;;16.04;53.27;101255.41;4947696;28;124821;-67
2023/01/01 07:51:15;;;;;;;7.78;2.65;;;;;;;16.01;53.51;101268.06;4951501;28;114909;-67
2023/01/01 07:53:42;;;;;;;7.40;2.58;;;;;;;15.98;53.71;101266.47;4954181;28;114840;-67
2023/01/01 07:56:09;;;;;;;7.00;2.75;;;;;;;15.95;53.58;101267.53;4951138;28;123462;-67
2023/01/01 07:58:40;;;;;;;6.78;2.63;;;;;;;15.94;53.95;101272.94;4948703;28;123647;-67
2023/01/01 08:01:13;;;;;;;7.28;2.67;;;;;;;15.93;54.03;101273.88;4949081;28;114123;-68
2023/01/01 08:03:41;;;;;;;4.70;2.50;;;;;;;15.92;53.96;101280.19;4949322;28;114338;-68
2023/01/01 08:06:10;;;;;;;6.05;2.30;;;;;;;15.91;53.91;101283.81;4946029;28;123416;-68
2023/01/01 08:08:37;;;;;;;6.80;2.17;;;;;;;15.90;53.94;101290.13;4950437;28;124996;-67
2023/01/01 08:11:04;;;;;;;6.43;2.30;;;;;;;15.89;54.01;101293.72;4949018;28;114534;-67
2023/01/01 08:13:31;;;;;;;5.85;2.35;;;;;;;15.86;54.01;101312.59;4943780;28;114624;-67
2023/01/01 08:15:58;;;;;;;6.90;2.53;;;;;;;15.84;54.27;101328.75;4959889;28;123967;-67
2023/01/01 08:18:25;;;;;;;5.80;2.03;;;;;;;15.80;54.34;101343.22;4944300;28;123432;-66
2023/01/01 08:20:53;;;;;;;7.32;2.35;;;;;;;15.78;54.40;101342.44;4950285;28;115158;-67
2023/01/01 08:23:20;;;;;;;5.63;2.10;;;;;;;15.75;54.51;101350.66;4941127;28;113801;-67
2023/01/01 08:25:47;;;;;;;7.22;2.00;;;;;;;15.73;54.72;101353.41;4946448;28;123986;-66
2023/01/01 08:28:14;;;;;;;5.78;2.10;;;;;;;15.71;54.64;101360.63;4940349;28;123660;-67
2023/01/01 08:30:41;;;;;;;6.72;1.98;;;;;;;15.68;54.75;101371.47;4955471;28;114313;-66
2023/01/01 08:33:08;;;;;;;6.75;1.77;;;;;;;15.67;54.80;101380.44;4953149;28;114423;-67
2023/01/01 08:35:39;;;;;;;5.03;1.65;;;;;;;15.63;55.05;101389.56;4958071;28;124642;-67
2023/01/01 08:38:07;;;;;;;5.72;1.42;;;;;;;15.60;54.96;101395.09;4949132;28;123369;-67
2023/01/01 08:40:35;;;;;;;4.35;1.52;;;;;;;15.54;55.14;101396.31;4950427;28;115618;-67
2023/01/01 08:43:02;;;;;;;6.80;1.40;;;;;;;15.49;55.20;101376.16;4952417;28;115487;-67
2023/01/01 08:45:29;;;;;;;5.63;1.70;;;;;;;15.41;55.19;101383.72;4960389;28;124660;-67
2023/01/01 08:47:56;;;;;;;4.57;1.50;;;;;;;15.34;55.32;101388.56;4950535;28;123699;-67
2023/01/01 08:50:25;;;;;;;5.30;1.50;;;;;;;15.27;55.60;101382.69;4955934;28;114358;-67
2023/01/01 08:52:52;;;;;;;4.40;1.20;;;;;;;15.22;55.71;101379.44;4948115;28;113848;-67
2023/01/01 08:55:19;;;;;;;4.18;1.52;;;;;;;15.17;55.99;101373.50;4951986;28;124123;-67
2023/01/01 08:57:46;;;;;;;5.28;1.30;;;;;;;15.13;56.05;101382.63;4953005;28;124771;-67
2023/01/01 09:00:13;;;;;;;3.22;1.40;;;;;;;15.11;56.22;101397.88;4956815;28;114879;-67
2023/01/01 09:02:41;;;;;;;2.92;1.33;;;;;;;15.09;56.27;101394.41;4955293;28;113608;-67
2023/01/01 09:05:09;;;;;;;4.90;1.77;;;;;;;15.08;56.39;101392.69;4946215;28;124684;-67
2023/01/01 09:07:36;;;;;;;5.78;1.40;;;;;;;15.06;56.40;101394.56;4952970;28;124536;-67
2023/01/01 09:10:03;;;;;;;3.20;1.40;;;;;;;15.05;56.52;101387.50;4952330;28;114399;-67
2023/01/01 09:12:30;;;;;;;4.47;1.10;;;;;;;15.04;56.61;101396.47;4941697;28;113413;-67
2023/01/01 09:14:57;;;;;;;3.45;1.25;;;;;;;15.03;56.64;101397.41;4949923;28;124075;-67
2023/01/01 09:17:24;;;;;;;5.25;1.65;;;;;;;15.02;56.87;101404.56;4955808;28;124179;-67
2023/01/01 09:19:51;;;;;;;3.47;1.27;;;;;;;15.03;56.97;101389.41;4949224;28;114323;-67
2023/01/01 09:22:18;;;;;;;6.30;1.48;;;;;;;15.04;57.11;101396.47;4960164;28;113976;-67
2023/01/01 09:24:46;;;;;;;5.68;1.40;;;;;;;15.07;57.10;101409.63;4952583;28;124194;-67
2023/01/01 09:27:13;;;;;;;5.90;1.70;;;;;;;15.09;57.26;101415.75;4954697;28;124165;-68
2023/01/01 09:29:40;;;;;;;4.82;1.98;;;;;;;15.11;57.20;101420.06;4960725;28;115078;-67
2023/01/01 09:32:07;;;;;;;3.65;1.55;;;;;;;15.12;57.33;101407.56;4959505;28;115523;-68
2023/01/01 09:34:34;;;;;;;4.88;2.15;;;;;;;15.16;57.51;101411.78;4950977;28;124527;-67
2023/01/01 09:37:01;;;;;;;4.43;1.70;;;;;;;15.18;57.57;101407.22;4956972;28;124335;-67
2023/01/01 09:39:29;;;;;;;6.05;1.80;;;;;;;15.22;57.54;101416.81;4955900;28;114645;-67
2023/01/01 09:42:06;;;;;;;7.20;1.80;;;;;;;15.24;57.85;101409.56;4956750;28;114199;-67
2023/01/01 09:44:54;;;;;;;5.05;2.10;;;;;;;15.26;57.65;101413.03;4951077;28;124228;-68
2023/01/01 09:47:27;;;;;;;7.18;2.50;;;;;;;15.28;57.77;101411.13;4964635;28;124004;-67
2023/01/01 09:49:59;;;;;;;4.80;1.85;;;;;;;15.30;57.83;101413.72;4954919;28;114236;-68
2023/01/01 09:52:38;;;;;;;5.13;1.80;;;;;;;15.32;57.85;101407.31;4951625;28;114381;-67
2023/01/01 09:55:17;;;;;;;5.95;2.05;;;;;;;15.34;57.79;101416.09;4955758;28;122898;-67
2023/01/01 09:57:44;;;;;;;4.43;1.75;;;;;;;15.37;57.89;101423.97;4948588;28;124165;-68
2023/01/01 10:00:17;;;;;;;7.25;2.10;;;;;;;15.38;57.81;101433.66;4957334;28;114537;-67
2023/01/01 10:03:01;;;;;;;5.45;2.10;;;;;;;15.41;57.92;101429.09;4949795;28;114764;-67
2023/01/01 10:05:40;;;;;;;4.28;2.22;;;;;;;15.42;57.91;101430.84;4953198;28;123701;-67
2023/01/01 10:09:07;;;;;;;5.50;1.90;;;;;;;15.41;57.65;101434.44;4956028;28;123687;-67
2023/01/01 10:11:54;;;;;;;9.50;2.22;;;;;;;15.38;57.82;101423.00;4952578;28;113948;-68
2023/01/01 10:14:26;;;;;;;6.13;2.25;;;;;;;15.38;57.81;101414.97;4951057;28;113949;-69
2023/01/01 10:16:55;;;;;;;7.28;2.15;;;;;;;15.41;58.00;101415.75;4949507;28;123696;-69
2023/01/01 10:19:33;;;;;;;6.75;2.28;;;;;;;15.41;57.95;101405.97;4951816;28;123584;-69
2023/01/01 10:22:06;;;;;;;7.28;2.20;;;;;;;15.42;57.97;101410.34;4963785;28;117076;-69
2023/01/01 10:24:45;;;;;;;7.15;2.15;;;;;;;15.42;57.95;101406.81;4949624;28;115301;-68
2023/01/01 10:27:41;;;;;;;4.57;2.22;;;;;;;15.41;58.04;101394.41;4953490;28;123133;-70
2023/01/01 10:30:25;;;;;;;9.77;2.13;;;;;;;15.41;58.16;101389.06;4947955;28;123849;-70
2023/01/01 10:32:53;;;;;;;3.97;1.85;;;;;;;15.42;58.06;101398.81;4950240;28;114741;-70
2023/01/01 10:35:30;;;;;;;6.45;2.85;;;;;;;15.43;58.32;101393.38;4947610;28;113739;-70
2023/01/01 10:37:58;;;;;;;3.97;1.70;;;;;;;15.44;58.38;101391.56;4948906;28;124301;-70
2023/01/01 10:40:27;;;;;;;7.07;2.90;;;;;;;15.45;58.17;101396.81;4954115;28;123985;-70
2023/01/01 10:42:56;;;;;;;6.88;1.88;;;;;;;15.46;58.32;101401.19;4951921;28;114048;-70
2023/01/01 10:45:35;;;;;;;4.47;2.10;;;;;;;15.46;58.47;101403.03;4953679;28;113782;-70
2023/01/01 10:48:08;;;;;;;4.10;2.20;;;;;;;15.46;58.44;101405.69;4953334;28;124927;-70
2023/01/01 10:50:45;;;;;;;4.75;2.00;;;;;;;15.46;58.52;101411.03;4951123;28;124113;-70
2023/01/01 10:53:36;;;;;;;7.95;2.22;;;;;;;15.47;58.53;101410.09;4957825;28;114548;-70
2023/01/01 10:56:09;;;;;;;5.88;1.98;;;;;;;15.48;58.51;101411.78;4951052;28;113474;-70
2023/01/01 10:58:43;;;;;;;6.85;2.55;;;;;;;15.49;58.48;101413.53;4961230;28;124167;-70
2023/01/01 11:01:16;;;;;;;6.37;2.70;;;;;;;15.50;58.52;101409.91;4950590;28;123739;-70
2023/01/01 11:04:16;;;;;;;6.63;2.40;;;;;;;15.53;58.54;101409.75;4950226;28;113609;-70
2023/01/01 11:06:45;;;;;;;9.75;2.85;;;;;;;15.56;58.40;101414.91;4949177;28;114025;-70
2023/01/01 11:09:27;;;;;;;5.22;2.45;;;;;;;15.59;58.68;101409.38;4950226;28;124399;-70
2023/01/01 11:11:59;;;;;;;8.85;2.67;;;;;;;15.66;58.56;101410.75;4972026;28;97047;-69
2023/01/01 11:14:53;;;;;;;7.60;2.50;;;;;;;15.70;58.40;101417.63;4961200;28;115321;-70
2023/01/01 11:17:33;;;;;;;6.53;2.10;;;;;;;15.76;58.57;101422.69;4953291;28;114935;-70
2023/01/01 11:20:04;;;;;;;5.75;2.15;;;;;;;15.83;58.52;101416.97;4958326;28;124692;-69
2023/01/01 11:22:51;;;;;;;5.90;2.42;;;;;;;15.89;58.48;101411.28;4957114;28;123929;-70
2023/01/01 11:25:27;;;;;;;4.18;2.38;;;;;;;15.95;58.15;101426.94;4960278;28;113305;-69
2023/01/01 11:28:22;;;;;;;6.28;1.98;;;;;;;16.01;58.17;101437.28;4960399;28;113983;-70
2023/01/01 11:31:10;;;;;;;6.90;2.13;;;;;;;16.06;58.12;101427.16;4957847;28;125205;-70
2023/01/01 11:33:44;;;;;;;7.22;1.90;;;;;;;16.10;57.90;101434.03;4962096;28;123083;-70
2023/01/01 11:36:39;;;;;;;8.68;2.17;;;;;;;16.14;57.89;101443.63;4947397;28;113092;-70
2023/01/01 11:39:25;;;;;;;7.80;1.92;;;;;;;16.21;57.97;101437.91;4947280;28;114759;-70
2023/01/01 11:41:55;;;;;;;6.82;2.03;;;;;;;16.26;57.60;101430.50;4931298;28;122946;-71
2023/01/01 11:44:25;;;;;;;8.48;2.22;;;;;;;16.31;57.67;101423.03;4948831;28;125451;-70